Flight Track Log - Related Links

Times and Time Zones

All times are in EDT time to prevent confusion due to time zone crossing. See the DAL1214 flight status page for this flight to view local times or setup timezone preferences in your user account.

Time Position Orientation Groundspeed Altitude Reporting Facility
EDT Latitude Longitude Course Direction KTS MPH feet Rate Location/Type
Fri 06:08:59 AM 40.6333 -74.2167 339° North 235 270 2,500  Level New York TRACON
Fri 06:09:59 AM 40.6500 -74.3167 282° West 261 300 6,200 3,223 Climbing New York TRACON
Fri 06:11:00 AM 40.7000 -74.3667 323° Northwest 266 306 9,000 2,516 Climbing New York TRACON
Fri 06:11:32 AM 40.7294 -74.3775 344° North 284 327 10,100 2,600 Climbing New York Center
Fri 06:12:00 AM 41.1776 -74.2925 346° North  Level FlightAware Approximate
Fri 06:12:30 AM 40.8233 -74.3769 360° North 314 361 12,900  Level New York Center
Fri 06:13:00 AM 41.2793 -74.3167 North  Level FlightAware Approximate
Fri 06:13:31 AM 40.9044 -74.3758 North 349 402 14,000  Level New York Center
Fri 06:14:00 AM 41.3800 -74.3483 339° North  Level FlightAware Approximate
Fri 06:14:30 AM 41.0008 -74.4278 338° Northwest 348 400 14,900  Level New York Center
Fri 06:15:32 AM 41.0706 -74.5250 314° West 348 400 16,000 1,500 Climbing New York Center
Fri 06:16:30 AM 41.1444 -74.6311 313° West 362 417 17,900 1,576 Climbing New York Center
Fri 06:17:30 AM 41.2122 -74.7206 315° West 385 443 19,100 1,686 Climbing New York Center
Fri 06:18:31 AM 41.2853 -74.8353 310° West 390 449 21,300 1,770 Climbing New York Center
Fri 06:19:32 AM 41.3628 -74.9478 313° West 396 456 22,700 1,450 Climbing New York Center
Fri 06:20:31 AM 41.4397 -75.0631 312° West 402 463 24,200 1,412 Climbing New York Center
Fri 06:21:31 AM 41.5189 -75.1789 312° West 413 475 25,500 1,210 Climbing New York Center
Fri 06:22:30 AM 41.5975 -75.2981 311° West 418 481 26,600 942 Climbing New York Center
Fri 06:23:32 AM 41.6806 -75.4175 313° West 423 487 27,400 885 Climbing New York Center
Fri 06:24:32 AM 41.7586 -75.5481 309° West 436 502 28,400 1,261 Climbing New York Center
Fri 06:25:31 AM 41.8003 -75.7011 290° West 436 502 29,900 1,600 Climbing New York Center
Fri 06:26:32 AM 41.8431 -75.8714 289° West 436 502 31,600 1,050 Climbing New York Center
Fri 06:27:31 AM 41.8819 -76.0250 289° West 436 502 32,000 202 Climbing New York Center
Fri 06:28:31 AM 41.9233 -76.1758 290° West 436 502 32,000 600 Level New York Center
Fri 06:29:31 AM 41.9597 -76.3294 288° West 436 502 33,200 863 Climbing New York Center
Fri 06:30:50 AM 42.0089 -76.5189 289° West 430 495 34,000 343 Climbing Cleveland Center
Fri 06:31:51 AM 42.0461 -76.6656 289° West 422 486 34,000  Level Cleveland Center
Fri 06:32:52 AM 42.0833 -76.8133 289° West 418 481 34,000  Level Cleveland Center
Fri 06:33:53 AM 42.1208 -76.9611 289° West 418 481 34,000  Level Cleveland Center
Fri 06:34:54 AM 42.1564 -77.1089 288° West 417 480 34,000  Level Cleveland Center
Fri 06:35:55 AM 42.1925 -77.2569 288° West 417 480 34,000  Level Cleveland Center
Fri 06:36:56 AM 42.2300 -77.4075 289° West 417 480 34,000  Level Cleveland Center
Fri 06:37:57 AM 42.2683 -77.5567 289° West 418 481 34,000  Level Cleveland Center
Fri 06:38:58 AM 42.3158 -77.7028 294° West 421 484 34,000  Level Cleveland Center
Fri 06:39:59 AM 42.3631 -77.8497 294° West 422 486 34,000  Level Cleveland Center
Fri 06:41:01 AM 42.4100 -77.9967 293° West 422 486 34,000  Level Cleveland Center
Fri 06:42:02 AM 42.4669 -78.1719 294° West 422 486 34,000 -49 Level Cleveland Center
Fri 06:43:03 AM 42.5119 -78.3175 293° West 421 484 33,900  Descending Cleveland Center
Fri 06:44:04 AM 42.5589 -78.4642 294° West 422 486 34,000 49 Climbing Cleveland Center
Fri 06:45:06 AM 42.6069 -78.6117 294° West 427 491 34,000  Level Cleveland Center
Fri 06:46:07 AM 42.6531 -78.7592 293° West 426 490 34,000  Level Cleveland Center
Fri 06:47:08 AM 42.6961 -78.9083 291° West 425 489 34,000 -393 Level Cleveland Center
Fri 06:48:09 AM 42.7147 -79.0639 279° West 422 486 33,200 -878 Descending Cleveland Center
Fri 06:49:11 AM 42.7167 -79.2250 271° West 426 490 32,200 -585 Descending Cleveland Center
Fri 06:50:12 AM 42.7167 -79.3900 270° West 435 501 32,000 -443 Descending Cleveland Center
Fri 06:51:13 AM 42.7161 -79.5531 270° West 435 501 31,300 -488 Descending Cleveland Center
Fri 06:52:15 AM 42.7153 -79.7500 270° West 435 501 31,000 -146 Descending Cleveland Center
Fri 06:53:16 AM 42.7144 -79.9147 270° West 436 502 31,000  Level Cleveland Center
Fri 06:54:17 AM 42.7131 -80.0733 269° West 435 501 31,000  Level Cleveland Center
Fri 06:55:19 AM 42.7119 -80.2408 270° West 438 504 31,000 -146 Level Cleveland Center
Fri 06:56:20 AM 42.7111 -80.4075 270° West 438 504 30,700 -634 Descending Cleveland Center
Fri 06:57:22 AM 42.7097 -80.5725 269° West 437 503 29,700 -976 Descending Cleveland Center
Fri 06:58:23 AM 42.7081 -80.7317 269° West 421 484 28,700 -984 Descending Cleveland Center
Fri 06:59:24 AM 42.7058 -80.8903 269° West 418 481 27,700 -1,073 Descending Cleveland Center
Fri 07:00:26 AM 42.6858 -81.0667 261° West 406 467 26,500 -1,024 Descending Cleveland Center
Fri 07:01:27 AM 42.6692 -81.2172 261° West 405 466 25,600 -927 Descending Cleveland Center
Fri 07:02:29 AM 42.6531 -81.3639 262° West 395 455 24,600 -976 Descending Cleveland Center
Fri 07:03:30 AM 42.6347 -81.5122 261° West 395 455 23,600 -976 Descending Cleveland Center
Fri 07:04:32 AM 42.6178 -81.6575 261° West 392 451 22,600 -976 Descending Cleveland Center
Fri 07:05:33 AM 42.6003 -81.7997 261° West 380 437 21,600 -927 Descending Cleveland Center
Fri 07:06:35 AM 42.5839 -81.9394 261° West 376 433 20,700 -927 Descending Cleveland Center
Fri 07:07:36 AM 42.5669 -82.0769 261° West 373 429 19,700 -1,220 Descending Cleveland Center
Fri 07:08:38 AM 42.5500 -82.2100 236° Southwest 363 418 18,200 -2,022 Descending Cleveland Center
Fri 07:09:00 AM 42.5376 -82.2687 256° West  Level FlightAware Approximate
Fri 07:09:05 AM 42.5406 -82.2875 261° West 343 395 16,700  Level Cleveland Center
Fri 07:09:35 AM 42.5319 -82.3486 259° West 338 389 15,600 -2,176 Descending Cleveland Center
Fri 07:10:36 AM 42.5172 -82.4714 261° West 329 379 13,400 -1,748 Descending Cleveland Center
Fri 07:11:42 AM 42.4922 -82.5947 255° West 314 361 11,900 -1,525 Descending Cleveland Center
Fri 07:12:38 AM 42.4553 -82.6953 244° Southwest 306 352 10,300 -1,355 Descending Cleveland Center
Fri 07:13:46 AM 42.4231 -82.7894 245° Southwest 279 321 9,100 -1,426 Descending Cleveland Center
Fri 07:14:40 AM 42.4203 -82.8886 268° West 268 308 7,400 -1,617 Descending Cleveland Center
Fri 07:15:41 AM 42.4175 -82.9842 268° West 256 295 6,000 -1,131 Descending Cleveland Center
Fri 07:16:00 AM 42.2755 -83.1657 236° Southwest  Level FlightAware Approximate
Fri 07:16:42 AM 42.4144 -83.0828 268° West 251 289 5,100  Level Cleveland Center
Fri 07:17:00 AM 42.2299 -83.2903 236° Southwest  Level FlightAware Approximate
Fri 07:17:43 AM 42.4061 -83.1636 262° West 181 208 4,800  Level Cleveland Center
Fri 07:18:44 AM 42.3769 -83.2161 233° Southwest 166 191 4,000 -787 Descending Cleveland Center
Fri 07:19:45 AM 42.3369 -83.2472 210° Southwest 165 190 3,200 -676 Descending Cleveland Center
Fri 07:19:55 AM 42.3328 -83.2508 213° Southwest 169 194 3,200 -885 Level Cleveland Center
Fri 07:20:46 AM 42.2967 -83.2783 209° Southwest 161 185 2,300 -885 Descending Cleveland Center
Fri 07:20:56 AM 42.2928 -83.2794 192° South 167 192 2,300 -689 Level Cleveland Center
Fri 07:21:47 AM 42.2614 -83.3017 208° Southwest 132 152 1,600 -677 Descending Cleveland Center
Fri 07:21:58 AM 42.2597 -83.3047 234° Southwest 142 163 1,600 -500 Level Cleveland Center
Fri 07:22:59 AM 42.2247 -83.3308 209° Southwest 136 157 1,000 -590 Descending Cleveland Center

Login

Don't have an account? Register now (free) for customized features, flight alerts, and more!